Station History

Weather Underground - logo

Station Historical Data
Daily Summary for January 6, 2018 Units:  English    Metric   Both
« Previous Day
Next Day »
Daily Weekly Monthly Yearly Custom
  High: Low: Average:
Temperature: 64.9 °F 54.8 °F 59.5 °F
Dew Point: 59.2 °F 53.7 °F 56.1 °F
Humidity: 96 % 80 % 89 %
Wind Speed: 5.8 mph 0.0 mph 0.8 mph
Wind Gust: 5.8 mph - -
Wind:- - NW
Pressure: 30.19 in 30.11 in -
Precipitation: 0.00 in    
Historical Graphs
 
 
Tabular Data for January 6, 2018
Time Temperature Dew Point Pressure Wind Wind Speed Wind Gust Humidity Rainfall Rate (Hourly)
00:04 58.6 °F 54.7 °F 30.18 in Calm     87 % 0.00 in
00:06 58.6 °F 54.7 °F 30.17 in Calm     87 % 0.00 in
00:11 58.7 °F 54.5 °F 30.17 in Calm     86 % 0.00 in
00:16 58.8 °F 54.6 °F 30.17 in Calm     86 % 0.00 in
00:21 59.1 °F 54.9 °F 30.17 in North 1.2 mph 1.2 mph 86 % 0.00 in
00:25 59.2 °F 54.7 °F 30.17 in Calm     85 % 0.00 in
00:30 59.3 °F 54.8 °F 30.17 in Calm     85 % 0.00 in
00:35 59.5 °F 54.7 °F 30.16 in NW 2.3 mph 2.3 mph 84 % 0.00 in
00:40 59.8 °F 55.0 °F 30.16 in Calm     84 % 0.00 in
00:45 59.9 °F 54.7 °F 30.16 in WNW 1.2 mph   83 % 0.00 in
00:50 60.1 °F 54.6 °F 30.15 in Calm     82 % 0.00 in
00:51 60.2 °F 54.7 °F 30.15 in Calm     82 % 0.00 in
00:53 60.3 °F 54.8 °F 30.15 in WNW 1.2 mph   82 % 0.00 in
00:58 60.3 °F 54.8 °F 30.15 in NNW 1.2 mph 1.2 mph 82 % 0.00 in
01:01 60.4 °F 54.9 °F 30.15 in NW 2.3 mph 2.3 mph 82 % 0.00 in
01:06 60.5 °F 54.6 °F 30.14 in WNW 1.2 mph 1.2 mph 81 % 0.00 in
01:07 60.5 °F 54.6 °F 30.14 in NW 1.2 mph 1.2 mph 81 % 0.00 in
01:12 60.6 °F 54.7 °F 30.14 in Calm     81 % 0.00 in
01:16 60.5 °F 54.6 °F 30.15 in WNW 1.2 mph   81 % 0.00 in
01:21 60.4 °F 54.5 °F 30.14 in NW 1.2 mph   81 % 0.00 in
01:26 60.4 °F 54.5 °F 30.14 in Calm     81 % 0.00 in
01:32 60.4 °F 54.5 °F 30.14 in Calm     81 % 0.00 in
01:34 60.3 °F 54.4 °F 30.14 in Calm     81 % 0.00 in
01:38 60.3 °F 54.4 °F 30.14 in Calm     81 % 0.00 in
01:44 60.1 °F 54.6 °F 30.14 in Calm   0.1 mph 82 % 0.00 in
01:49 59.9 °F 54.4 °F 30.14 in NW 1.2 mph 1.2 mph 82 % 0.00 in
01:54 59.9 °F 54.4 °F 30.14 in NNW 1.2 mph   82 % 0.00 in
01:58 59.9 °F 54.4 °F 30.15 in Calm     82 % 0.00 in
02:03 59.7 °F 54.5 °F 30.14 in NNW 1.0 mph   83 % 0.00 in
02:07 59.3 °F 54.1 °F 30.14 in Calm     83 % 0.00 in
02:13 59.2 °F 54.4 °F 30.14 in Calm     84 % 0.00 in
02:15 59.1 °F 54.3 °F 30.14 in Calm     84 % 0.00 in
02:18 59.1 °F 54.3 °F 30.13 in NNW 1.2 mph 1.2 mph 84 % 0.00 in
02:23 59.0 °F 54.2 °F 30.13 in Calm     84 % 0.00 in
02:28 59.1 °F 54.3 °F 30.12 in Calm   0.1 mph 84 % 0.00 in
02:38 59.5 °F 54.3 °F 30.12 in NW 1.2 mph 1.2 mph 83 % 0.00 in
02:43 59.8 °F 54.6 °F 30.12 in NNW 2.3 mph 2.3 mph 83 % 0.00 in
02:48 60.1 °F 54.6 °F 30.12 in Calm     82 % 0.00 in
02:53 60.4 °F 54.5 °F 30.11 in WNW 1.2 mph   81 % 0.00 in
02:58 60.6 °F 54.7 °F 30.12 in Calm     81 % 0.00 in
03:04 60.6 °F 54.7 °F 30.11 in Calm     81 % 0.00 in
03:09 60.7 °F 54.5 °F 30.11 in Calm     80 % 0.00 in
03:10 60.8 °F 54.6 °F 30.11 in Calm     80 % 0.00 in
03:15 60.9 °F 54.7 °F 30.12 in NW 1.2 mph 1.2 mph 80 % 0.00 in
03:16 60.9 °F 54.7 °F 30.12 in NW 1.2 mph 1.2 mph 80 % 0.00 in
03:21 60.4 °F 54.5 °F 30.12 in NW 1.2 mph 1.2 mph 81 % 0.00 in
03:23 60.2 °F 54.7 °F 30.12 in NW 1.2 mph 1.2 mph 82 % 0.00 in
03:28 59.6 °F 54.4 °F 30.12 in NW 1.2 mph 1.2 mph 83 % 0.00 in
03:33 59.3 °F 54.1 °F 30.12 in Calm     83 % 0.00 in
03:38 59.1 °F 54.3 °F 30.12 in Calm     84 % 0.00 in
03:43 58.8 °F 54.0 °F 30.13 in Calm     84 % 0.00 in
03:48 58.5 °F 54.0 °F 30.13 in NW 1.2 mph 1.2 mph 85 % 0.00 in
03:51 58.4 °F 53.9 °F 30.13 in NW 1.2 mph 1.2 mph 85 % 0.00 in
03:55 58.4 °F 53.9 °F 30.13 in Calm     85 % 0.00 in
03:59 58.5 °F 54.3 °F 30.14 in NW 2.3 mph 2.3 mph 86 % 0.00 in
04:04 58.8 °F 54.6 °F 30.14 in NNE 1.2 mph 1.2 mph 86 % 0.00 in
04:06 58.8 °F 54.6 °F 30.14 in NW 1.2 mph 1.2 mph 86 % 0.00 in
04:11 58.9 °F 54.7 °F 30.14 in Calm     86 % 0.00 in
04:16 58.9 °F 54.7 °F 30.14 in Calm     86 % 0.00 in
04:20 58.9 °F 55.0 °F 30.14 in NW 1.0 mph 1.0 mph 87 % 0.00 in
04:25 58.8 °F 54.9 °F 30.14 in Calm     87 % 0.00 in
04:30 58.7 °F 54.8 °F 30.14 in Calm     87 % 0.00 in
04:31 58.7 °F 54.8 °F 30.14 in Calm     87 % 0.00 in
04:36 58.6 °F 55.1 °F 30.14 in Calm     88 % 0.00 in
04:40 58.4 °F 54.9 °F 30.14 in Calm     88 % 0.00 in
04:45 58.2 °F 55.0 °F 30.15 in Calm     89 % 0.00 in
04:50 58.2 °F 55.0 °F 30.15 in Calm     89 % 0.00 in
04:55 58.2 °F 55.0 °F 30.15 in Calm     89 % 0.00 in
05:00 58.1 °F 54.9 °F 30.16 in Calm     89 % 0.00 in
05:05 58.1 °F 55.2 °F 30.16 in Calm     90 % 0.00 in
05:10 58.0 °F 55.1 °F 30.16 in Calm     90 % 0.00 in
05:15 57.8 °F 54.9 °F 30.16 in Calm     90 % 0.00 in
05:20 57.7 °F 54.8 °F 30.17 in Calm     90 % 0.00 in
05:21 57.7 °F 54.8 °F 30.17 in Calm     90 % 0.00 in
05:26 57.6 °F 55.0 °F 30.17 in Calm     91 % 0.00 in
05:27 57.6 °F 55.0 °F 30.17 in Calm     91 % 0.00 in
05:32 57.3 °F 54.7 °F 30.17 in Calm     91 % 0.00 in
05:34 57.2 °F 54.9 °F 30.17 in Calm     92 % 0.00 in
05:39 57.1 °F 54.8 °F 30.17 in Calm     92 % 0.00 in
05:44 57.0 °F 54.7 °F 30.17 in Calm     92 % 0.00 in
05:49 56.8 °F 54.5 °F 30.17 in Calm     92 % 0.00 in
05:54 56.7 °F 54.7 °F 30.17 in Calm     93 % 0.00 in
05:59 56.6 °F 54.6 °F 30.17 in SE 1.2 mph   93 % 0.00 in
06:04 56.5 °F 54.5 °F 30.17 in Calm     93 % 0.00 in
06:09 56.4 °F 54.4 °F 30.17 in Calm     93 % 0.00 in
06:10 56.4 °F 54.4 °F 30.17 in Calm     93 % 0.00 in
06:11 56.4 °F 54.4 °F 30.17 in Calm     93 % 0.00 in
06:16 56.3 °F 54.3 °F 30.17 in Calm     93 % 0.00 in
06:21 56.2 °F 54.2 °F 30.17 in Calm     93 % 0.00 in
06:26 56.1 °F 54.1 °F 30.17 in Calm     93 % 0.00 in
06:31 56.1 °F 54.4 °F 30.17 in Calm     94 % 0.00 in
06:36 56.0 °F 54.3 °F 30.17 in Calm     94 % 0.00 in
06:41 55.9 °F 54.2 °F 30.17 in Calm     94 % 0.00 in
06:46 55.8 °F 54.1 °F 30.17 in Calm     94 % 0.00 in
06:51 55.8 °F 54.1 °F 30.18 in Calm     94 % 0.00 in
06:58 55.8 °F 54.1 °F 30.18 in Calm     94 % 0.00 in
07:03 55.8 °F 54.1 °F 30.18 in Calm     94 % 0.00 in
07:08 55.7 °F 54.0 °F 30.18 in Calm     94 % 0.00 in
07:10 55.7 °F 54.0 °F 30.18 in Calm     94 % 0.00 in
07:15 55.8 °F 54.1 °F 30.19 in Calm     94 % 0.00 in
07:19 55.7 °F 54.0 °F 30.18 in Calm     94 % 0.00 in
07:24 55.7 °F 54.0 °F 30.18 in WNW 1.2 mph 1.2 mph 94 % 0.00 in
07:29 55.6 °F 53.9 °F 30.19 in Calm     94 % 0.00 in
07:34 55.6 °F 53.9 °F 30.19 in Calm     94 % 0.00 in
07:37 55.6 °F 54.2 °F 30.18 in Calm     95 % 0.00 in
07:42 55.7 °F 54.3 °F 30.18 in Calm     95 % 0.00 in
07:44 55.8 °F 54.4 °F 30.18 in Calm     95 % 0.00 in
07:49 55.9 °F 54.5 °F 30.19 in Calm     95 % 0.00 in
07:54 56.1 °F 54.7 °F 30.19 in Calm     95 % 0.00 in
08:00 56.4 °F 55.0 °F 30.19 in Calm     95 % 0.00 in
08:11 56.7 °F 55.0 °F 30.18 in Calm     94 % 0.00 in
08:13 56.8 °F 55.1 °F 30.18 in Calm     94 % 0.00 in
08:18 56.9 °F 55.2 °F 30.17 in WNW 1.2 mph   94 % 0.00 in
08:23 57.1 °F 55.4 °F 30.17 in WNW 1.2 mph 1.2 mph 94 % 0.00 in
08:28 57.2 °F 55.2 °F 30.17 in WNW 1.2 mph   93 % 0.00 in
08:33 57.4 °F 55.4 °F 30.17 in NW 1.2 mph   93 % 0.00 in
08:38 57.6 °F 55.6 °F 30.17 in NW 1.2 mph   93 % 0.00 in
08:44 58.0 °F 56.0 °F 30.18 in NNW 2.3 mph 2.3 mph 93 % 0.00 in
08:47 58.4 °F 56.4 °F 30.18 in NW 2.3 mph 2.3 mph 93 % 0.00 in
08:52 58.7 °F 56.4 °F 30.17 in NW 3.5 mph 3.5 mph 92 % 0.00 in
08:57 58.8 °F 56.5 °F 30.17 in NW 3.0 mph 3.0 mph 92 % 0.00 in
09:01 58.8 °F 56.2 °F 30.17 in NW 2.3 mph 2.3 mph 91 % 0.00 in
09:06 58.8 °F 56.2 °F 30.17 in North 1.2 mph 1.2 mph 91 % 0.00 in
09:09 58.8 °F 56.2 °F 30.17 in NW 2.3 mph 2.3 mph 91 % 0.00 in
09:14 58.8 °F 56.5 °F 30.17 in NNW 3.5 mph 3.5 mph 92 % 0.00 in
09:19 58.8 °F 56.5 °F 30.17 in NNW 3.5 mph 3.5 mph 92 % 0.00 in
09:24 58.9 °F 56.6 °F 30.18 in NW 1.2 mph 1.2 mph 92 % 0.00 in
09:29 59.0 °F 56.7 °F 30.18 in WNW 1.2 mph   92 % 0.00 in
09:34 59.2 °F 56.9 °F 30.18 in NW 1.0 mph 1.0 mph 92 % 0.00 in
09:39 59.5 °F 56.9 °F 30.18 in NW 1.2 mph 1.2 mph 91 % 0.00 in
09:44 59.8 °F 57.2 °F 30.18 in NW 2.3 mph 2.3 mph 91 % 0.00 in
09:45 59.8 °F 57.2 °F 30.18 in NW 1.2 mph 1.2 mph 91 % 0.00 in
09:50 60.1 °F 57.2 °F 30.18 in Calm     90 % 0.00 in
09:55 60.4 °F 57.5 °F 30.18 in Calm     90 % 0.00 in
09:59 60.6 °F 57.7 °F 30.18 in North 1.0 mph 1.0 mph 90 % 0.00 in
10:04 60.9 °F 57.6 °F 30.18 in Calm     89 % 0.00 in
10:10 61.3 °F 57.7 °F 30.18 in NNW 1.2 mph   88 % 0.00 in
10:15 61.7 °F 57.8 °F 30.18 in Calm     87 % 0.00 in
10:18 62.1 °F 58.2 °F 30.18 in Calm   0.1 mph 87 % 0.00 in
10:23 62.8 °F 58.5 °F 30.18 in Calm     86 % 0.00 in
10:24 62.8 °F 58.5 °F 30.18 in Calm     86 % 0.00 in
10:29 63.1 °F 58.2 °F 30.18 in NW 1.2 mph   84 % 0.00 in
10:31 63.1 °F 58.2 °F 30.18 in Calm     84 % 0.00 in
10:36 63.3 °F 58.4 °F 30.18 in Calm     84 % 0.00 in
10:41 63.6 °F 58.3 °F 30.18 in Calm     83 % 0.00 in
10:46 63.7 °F 58.4 °F 30.19 in Calm     83 % 0.00 in
10:51 64.0 °F 58.4 °F 30.18 in Calm     82 % 0.00 in
10:56 64.4 °F 58.4 °F 30.18 in WNW 1.0 mph   81 % 0.00 in
10:58 64.5 °F 58.2 °F 30.18 in NW 2.0 mph 2.0 mph 80 % 0.00 in
11:04 64.4 °F 58.8 °F 30.18 in WNW 2.3 mph 2.3 mph 82 % 0.00 in
11:05 64.4 °F 58.8 °F 30.18 in NW 1.2 mph 1.2 mph 82 % 0.00 in
11:08 64.3 °F 58.7 °F 30.18 in NW 2.0 mph 2.0 mph 82 % 0.00 in
11:13 64.0 °F 58.4 °F 30.18 in NW 1.2 mph 1.2 mph 82 % 0.00 in
11:15 64.0 °F 58.4 °F 30.18 in WNW 1.2 mph 1.2 mph 82 % 0.00 in
11:20 63.8 °F 58.5 °F 30.17 in NW 1.2 mph 1.2 mph 83 % 0.00 in
11:25 63.8 °F 58.2 °F 30.17 in NW 2.3 mph 2.3 mph 82 % 0.00 in
11:26 63.8 °F 58.2 °F 30.18 in West 1.2 mph 1.2 mph 82 % 0.00 in
11:31 63.7 °F 58.1 °F 30.17 in NNW 2.3 mph 2.3 mph 82 % 0.00 in
11:36 63.7 °F 58.4 °F 30.17 in WSW 1.2 mph 1.2 mph 83 % 0.00 in
11:37 63.8 °F 58.5 °F 30.17 in WSW 1.2 mph 1.2 mph 83 % 0.00 in
11:48 63.9 °F 58.3 °F 30.16 in West 2.3 mph 2.3 mph 82 % 0.00 in
12:33 64.8 °F 58.5 °F 30.14 in Calm     80 % 0.00 in
12:38 64.8 °F 58.5 °F 30.14 in NNW 1.2 mph 1.2 mph 80 % 0.00 in
12:40 64.8 °F 58.5 °F 30.14 in NNW 1.2 mph 1.2 mph 80 % 0.00 in
12:43 64.9 °F 58.6 °F 30.14 in NW 1.2 mph 1.2 mph 80 % 0.00 in
12:48 64.7 °F 58.7 °F 30.14 in NW 1.2 mph 1.2 mph 81 % 0.00 in
12:50 64.7 °F 58.7 °F 30.14 in NW 1.2 mph 1.2 mph 81 % 0.00 in
12:51 64.6 °F 58.6 °F 30.14 in NW 1.2 mph 1.2 mph 81 % 0.00 in
12:56 64.5 °F 58.5 °F 30.14 in NW 1.2 mph   81 % 0.00 in
13:01 64.4 °F 58.4 °F 30.14 in NW 1.2 mph 1.2 mph 81 % 0.00 in
13:02 64.4 °F 58.4 °F 30.14 in NW 1.2 mph 1.2 mph 81 % 0.00 in
13:07 64.3 °F 58.3 °F 30.14 in NW 3.5 mph 3.5 mph 81 % 0.00 in
13:11 64.2 °F 58.6 °F 30.14 in NW 2.3 mph 2.3 mph 82 % 0.00 in
13:13 64.2 °F 58.6 °F 30.14 in North 3.5 mph 3.5 mph 82 % 0.00 in
13:15 64.2 °F 58.6 °F 30.14 in NW 2.3 mph 2.3 mph 82 % 0.00 in
13:16 64.1 °F 58.5 °F 30.14 in NW 2.3 mph 2.3 mph 82 % 0.00 in
13:22 64.0 °F 58.4 °F 30.14 in WNW 3.5 mph 3.5 mph 82 % 0.00 in
13:27 63.8 °F 58.2 °F 30.15 in NW 3.5 mph 3.5 mph 82 % 0.00 in
13:32 63.7 °F 58.4 °F 30.15 in NW 3.5 mph 3.5 mph 83 % 0.00 in
13:35 63.7 °F 58.4 °F 30.15 in NW 3.5 mph 3.5 mph 83 % 0.00 in
13:38 63.6 °F 58.7 °F 30.15 in NW 4.6 mph 4.6 mph 84 % 0.00 in
13:43 63.5 °F 58.6 °F 30.15 in NW 2.3 mph 2.3 mph 84 % 0.00 in
13:48 63.5 °F 58.6 °F 30.15 in NW 3.5 mph 3.5 mph 84 % 0.00 in
13:53 63.5 °F 58.9 °F 30.15 in WNW 3.5 mph 3.5 mph 85 % 0.00 in
13:58 63.4 °F 58.8 °F 30.15 in NNW 5.8 mph 5.8 mph 85 % 0.00 in
14:03 63.4 °F 58.8 °F 30.15 in NW 5.8 mph 5.8 mph 85 % 0.00 in
14:04 63.4 °F 58.8 °F 30.15 in WNW 2.3 mph 2.3 mph 85 % 0.00 in
14:10 63.4 °F 58.8 °F 30.15 in NW 1.2 mph 1.2 mph 85 % 0.00 in
14:15 63.4 °F 58.8 °F 30.15 in WNW 2.3 mph 2.3 mph 85 % 0.00 in
14:20 63.5 °F 58.9 °F 30.15 in NW 1.2 mph 1.2 mph 85 % 0.00 in
14:23 63.5 °F 58.9 °F 30.15 in NW 2.3 mph 2.3 mph 85 % 0.00 in
14:28 63.5 °F 58.9 °F 30.14 in NW 3.5 mph 3.5 mph 85 % 0.00 in
14:31 63.5 °F 58.9 °F 30.14 in NW 2.3 mph 2.3 mph 85 % 0.00 in
14:36 63.4 °F 58.8 °F 30.14 in North 3.0 mph 3.0 mph 85 % 0.00 in
14:41 63.4 °F 58.8 °F 30.14 in NW 1.2 mph   85 % 0.00 in
14:46 63.4 °F 58.8 °F 30.14 in NW 1.0 mph 1.0 mph 85 % 0.00 in
14:50 63.4 °F 58.8 °F 30.14 in WNW 1.2 mph 1.2 mph 85 % 0.00 in
14:55 63.5 °F 58.9 °F 30.14 in NW 1.2 mph 1.2 mph 85 % 0.00 in
15:00 63.6 °F 59.0 °F 30.13 in NW 1.2 mph 1.2 mph 85 % 0.00 in
15:05 63.7 °F 59.1 °F 30.13 in Calm     85 % 0.00 in
15:15 63.9 °F 59.0 °F 30.13 in NW 1.2 mph 1.2 mph 84 % 0.00 in
15:20 64.0 °F 59.1 °F 30.13 in NW 1.2 mph 1.2 mph 84 % 0.00 in
15:25 64.1 °F 59.2 °F 30.13 in NNW 2.3 mph 2.3 mph 84 % 0.00 in
15:26 64.1 °F 59.2 °F 30.13 in NW 1.2 mph 1.2 mph 84 % 0.00 in
15:31 64.1 °F 59.2 °F 30.13 in NW 1.2 mph 1.2 mph 84 % 0.00 in
15:37 64.2 °F 58.9 °F 30.13 in NW 2.3 mph 2.3 mph 83 % 0.00 in
15:42 64.3 °F 59.0 °F 30.13 in NNW 3.5 mph 3.5 mph 83 % 0.00 in
15:47 64.2 °F 58.9 °F 30.13 in NW 1.0 mph 1.0 mph 83 % 0.00 in
15:52 64.1 °F 58.8 °F 30.13 in Calm     83 % 0.00 in
15:57 64.0 °F 58.7 °F 30.13 in Calm     83 % 0.00 in
16:01 64.0 °F 59.1 °F 30.13 in Calm     84 % 0.00 in
16:04 63.9 °F 59.0 °F 30.13 in Calm     84 % 0.00 in
16:09 63.8 °F 58.9 °F 30.13 in Calm     84 % 0.00 in
16:14 63.7 °F 58.8 °F 30.13 in Calm     84 % 0.00 in
16:20 63.5 °F 58.9 °F 30.13 in NW 1.2 mph 1.2 mph 85 % 0.00 in
16:25 63.4 °F 58.8 °F 30.14 in NW 2.3 mph 2.3 mph 85 % 0.00 in
16:28 63.3 °F 58.7 °F 30.14 in Calm     85 % 0.00 in
16:33 63.3 °F 58.7 °F 30.14 in Calm     85 % 0.00 in
16:38 63.1 °F 58.5 °F 30.14 in NW 1.2 mph 1.2 mph 85 % 0.00 in
16:39 63.2 °F 58.6 °F 30.14 in Calm     85 % 0.00 in
16:44 63.0 °F 58.7 °F 30.14 in Calm     86 % 0.00 in
16:50 62.8 °F 58.5 °F 30.14 in Calm     86 % 0.00 in
16:55 62.7 °F 58.5 °F 30.15 in Calm     86 % 0.00 in
17:00 62.4 °F 58.5 °F 30.15 in Calm     87 % 0.00 in
17:03 62.2 °F 58.3 °F 30.15 in Calm     87 % 0.00 in
17:08 61.8 °F 58.2 °F 30.15 in NW 1.2 mph   88 % 0.00 in
17:13 61.6 °F 58.0 °F 30.15 in Calm     88 % 0.00 in
17:18 61.5 °F 58.2 °F 30.15 in Calm     89 % 0.00 in
17:23 61.5 °F 58.2 °F 30.15 in Calm     89 % 0.00 in
17:25 61.4 °F 58.1 °F 30.15 in Calm     89 % 0.00 in
17:30 61.4 °F 58.1 °F 30.15 in Calm     89 % 0.00 in
17:35 61.3 °F 58.0 °F 30.15 in Calm     89 % 0.00 in
17:36 61.3 °F 58.0 °F 30.15 in Calm     89 % 0.00 in
17:41 61.2 °F 57.9 °F 30.15 in Calm     89 % 0.00 in
17:46 60.9 °F 57.9 °F 30.15 in Calm     90 % 0.00 in
17:47 60.9 °F 57.6 °F 30.15 in Calm     89 % 0.00 in
17:52 60.6 °F 57.7 °F 30.15 in Calm     90 % 0.00 in
17:57 60.3 °F 57.4 °F 30.15 in Calm     90 % 0.00 in
18:02 60.0 °F 57.4 °F 30.14 in Calm     91 % 0.00 in
18:05 59.9 °F 57.3 °F 30.15 in Calm     91 % 0.00 in
18:10 59.6 °F 57.0 °F 30.15 in Calm     91 % 0.00 in
18:12 59.5 °F 56.9 °F 30.14 in Calm     91 % 0.00 in
18:17 59.3 °F 57.0 °F 30.15 in Calm     92 % 0.00 in
18:18 59.3 °F 57.0 °F 30.15 in Calm     92 % 0.00 in
18:24 59.1 °F 56.8 °F 30.15 in WNW 1.2 mph 1.2 mph 92 % 0.00 in
18:29 58.9 °F 56.3 °F 30.15 in WNW 1.2 mph 1.2 mph 91 % 0.00 in
18:31 58.9 °F 56.6 °F 30.15 in WNW 1.2 mph 1.2 mph 92 % 0.00 in
18:36 58.7 °F 56.4 °F 30.15 in WNW 2.3 mph 2.3 mph 92 % 0.00 in
18:41 58.4 °F 56.1 °F 30.14 in NW 1.2 mph 1.2 mph 92 % 0.00 in
18:44 58.3 °F 56.0 °F 30.14 in NW 2.0 mph 2.0 mph 92 % 0.00 in
18:49 58.0 °F 56.0 °F 30.14 in NW 1.2 mph 1.2 mph 93 % 0.00 in
18:50 58.0 °F 56.0 °F 30.14 in NW 1.2 mph 1.2 mph 93 % 0.00 in
18:56 57.9 °F 56.2 °F 30.14 in Calm     94 % 0.00 in
18:58 57.8 °F 55.8 °F 30.14 in NW 1.2 mph 1.2 mph 93 % 0.00 in
19:02 57.7 °F 56.0 °F 30.15 in NW 1.2 mph   94 % 0.00 in
19:07 57.6 °F 55.9 °F 30.14 in NW 1.2 mph 1.2 mph 94 % 0.00 in
19:09 57.6 °F 55.9 °F 30.14 in WNW 2.0 mph 2.0 mph 94 % 0.00 in
19:14 57.5 °F 55.8 °F 30.14 in Calm     94 % 0.00 in
19:16 57.4 °F 55.7 °F 30.14 in Calm     94 % 0.00 in
19:21 57.4 °F 55.7 °F 30.14 in Calm     94 % 0.00 in
19:26 57.2 °F 55.5 °F 30.14 in Calm     94 % 0.00 in
19:28 57.2 °F 55.5 °F 30.14 in Calm     94 % 0.00 in
19:34 56.9 °F 55.2 °F 30.14 in Calm     94 % 0.00 in
19:40 56.8 °F 55.1 °F 30.14 in Calm     94 % 0.00 in
19:45 56.8 °F 55.4 °F 30.14 in NW 1.2 mph 1.2 mph 95 % 0.00 in
19:50 56.7 °F 55.3 °F 30.14 in WNW 2.3 mph 2.3 mph 95 % 0.00 in
19:55 56.7 °F 55.3 °F 30.14 in NW 2.3 mph 2.3 mph 95 % 0.00 in
20:00 56.6 °F 55.2 °F 30.14 in WNW 2.3 mph 2.3 mph 95 % 0.00 in
20:05 56.5 °F 55.1 °F 30.14 in NW 1.2 mph   95 % 0.00 in
20:10 56.4 °F 55.0 °F 30.13 in WNW 1.2 mph 1.3 mph 95 % 0.00 in
20:16 56.4 °F 55.0 °F 30.13 in WNW 2.3 mph 2.3 mph 95 % 0.00 in
20:19 56.4 °F 55.0 °F 30.14 in Calm     95 % 0.00 in
20:24 56.3 °F 54.9 °F 30.14 in NW 1.2 mph   95 % 0.00 in
20:25 56.3 °F 54.9 °F 30.14 in Calm     95 % 0.00 in
20:32 56.1 °F 54.7 °F 30.14 in Calm     95 % 0.00 in
20:36 56.1 °F 54.7 °F 30.14 in Calm     95 % 0.00 in
20:41 56.0 °F 54.6 °F 30.14 in Calm     95 % 0.00 in
20:46 55.8 °F 54.4 °F 30.14 in Calm     95 % 0.00 in
20:51 55.7 °F 54.3 °F 30.14 in Calm     95 % 0.00 in
20:56 55.7 °F 54.3 °F 30.14 in NW 1.2 mph   95 % 0.00 in
21:01 55.8 °F 54.7 °F 30.14 in Calm     96 % 0.00 in
21:06 55.8 °F 54.4 °F 30.14 in Calm     95 % 0.00 in
21:09 55.8 °F 54.7 °F 30.14 in Calm     96 % 0.00 in
21:15 55.8 °F 54.7 °F 30.15 in Calm     96 % 0.00 in
21:17 55.8 °F 54.7 °F 30.15 in Calm     96 % 0.00 in
21:22 55.8 °F 54.4 °F 30.15 in Calm     95 % 0.00 in
21:27 55.8 °F 54.4 °F 30.15 in Calm     95 % 0.00 in
21:32 55.7 °F 54.3 °F 30.15 in Calm     95 % 0.00 in
21:37 55.7 °F 54.3 °F 30.15 in Calm     95 % 0.00 in
21:42 55.7 °F 54.6 °F 30.15 in Calm     96 % 0.00 in
21:48 55.7 °F 54.6 °F 30.15 in Calm     96 % 0.00 in
21:53 55.7 °F 54.3 °F 30.15 in Calm     95 % 0.00 in
21:54 55.7 °F 54.3 °F 30.15 in Calm     95 % 0.00 in
21:59 55.7 °F 54.3 °F 30.15 in Calm     95 % 0.00 in
22:04 55.7 °F 54.3 °F 30.15 in Calm     95 % 0.00 in
22:05 55.6 °F 54.5 °F 30.15 in Calm     96 % 0.00 in
22:11 55.6 °F 54.5 °F 30.15 in Calm     96 % 0.00 in
22:13 55.6 °F 54.5 °F 30.15 in Calm     96 % 0.00 in
22:19 55.5 °F 54.4 °F 30.15 in Calm     96 % 0.00 in
22:24 55.5 °F 54.4 °F 30.16 in Calm     96 % 0.00 in
22:30 55.4 °F 54.3 °F 30.16 in NNW 1.2 mph 1.2 mph 96 % 0.00 in
22:32 55.4 °F 54.3 °F 30.16 in Calm     96 % 0.00 in
22:37 55.4 °F 54.3 °F 30.17 in Calm     96 % 0.00 in
22:42 55.4 °F 54.3 °F 30.16 in Calm     96 % 0.00 in
22:47 55.3 °F 54.2 °F 30.16 in Calm     96 % 0.00 in
22:52 55.3 °F 54.2 °F 30.17 in NNW 1.0 mph 1.0 mph 96 % 0.00 in
22:57 55.4 °F 54.3 °F 30.17 in Calm     96 % 0.00 in
22:58 55.4 °F 54.3 °F 30.17 in SSW 1.2 mph 1.2 mph 96 % 0.00 in
23:03 55.3 °F 54.2 °F 30.17 in Calm     96 % 0.00 in
23:06 55.3 °F 54.2 °F 30.18 in Calm     96 % 0.00 in
23:12 55.3 °F 54.2 °F 30.17 in Calm     96 % 0.00 in
23:17 55.2 °F 54.1 °F 30.17 in Calm     96 % 0.00 in
23:22 55.2 °F 54.1 °F 30.17 in Calm     96 % 0.00 in
23:27 55.2 °F 54.1 °F 30.18 in Calm     96 % 0.00 in
23:32 55.1 °F 54.0 °F 30.18 in Calm     96 % 0.00 in
23:33 55.1 °F 54.0 °F 30.18 in Calm     96 % 0.00 in
23:38 55.1 °F 54.0 °F 30.17 in Calm     96 % 0.00 in
23:39 55.1 °F 54.0 °F 30.17 in Calm     96 % 0.00 in
23:44 55.0 °F 53.9 °F 30.17 in Calm     96 % 0.00 in
23:49 54.9 °F 53.8 °F 30.17 in Calm     96 % 0.00 in
23:54 54.9 °F 53.8 °F 30.17 in Calm     96 % 0.00 in
23:57 54.8 °F 53.7 °F 30.17 in Calm     96 % 0.00 in
Park Place, Exeter, Tulare County, California, USA
Compliments of Weather Underground - 3 mb